Time;durP1;ratioP1;P1;durP2;ratioP2;P2;SDS_P1;SDS_P2;PMS_P1;PMS_P2;Temp;Humidity;BMP_temperature;BMP_pressure;BME280_temperature;BME280_humidity;BME280_pressure;Samples;Min_cycle;Max_cycle;Signal;HPM_P1;HPM_P2
2021/04/03 00:00:56;;;;;;;3.42;2.35;;;;;;;2.37;69.91;96123.91;1719408;81;21462;-58
2021/04/03 00:03:25;;;;;;;6.25;2.47;;;;;;;2.41;69.90;96122.03;1744346;80;21131;-58
2021/04/03 00:05:56;;;;;;;4.28;2.30;;;;;;;2.41;69.72;96122.84;1747818;81;21563;-56
2021/04/03 00:08:25;;;;;;;3.27;2.37;;;;;;;2.34;69.74;96116.36;1715375;80;21135;-55
2021/04/03 00:11:00;;;;;;;2.42;2.22;;;;;;;2.24;69.96;96112.53;1761379;79;21163;-56
2021/04/03 00:13:35;;;;;;;3.17;2.33;;;;;;;2.15;70.22;96121.46;1768505;80;21202;-56
2021/04/03 00:16:06;;;;;;;2.95;2.40;;;;;;;2.07;70.36;96110.73;1772064;79;21161;-56
2021/04/03 00:18:34;;;;;;;3.42;2.52;;;;;;;2.07;70.36;96110.73;1774737;79;21152;-56
2021/04/03 00:21:03;;;;;;;4.67;2.87;;;;;;;2.12;70.45;96107.52;1768431;79;21151;-55
2021/04/03 00:23:30;;;;;;;2.58;2.10;;;;;;;2.13;70.42;96106.17;1775098;80;21491;-58
2021/04/03 00:25:58;;;;;;;3.40;2.30;;;;;;;2.17;70.46;96094.06;1765592;79;21402;-58
2021/04/03 00:28:28;;;;;;;;;;;;;;;2.17;70.32;96089.80;1775995;79;21183;-56
2021/04/03 00:30:55;;;;;;;2.92;2.27;;;;;;;2.15;70.17;96082.61;1775693;79;20219;-58
2021/04/03 00:33:23;;;;;;;2.92;2.30;;;;;;;2.06;70.37;96077.11;1776944;79;21287;-57
2021/04/03 00:35:53;;;;;;;2.72;2.27;;;;;;;2.06;70.43;96078.38;1777745;79;21168;-56
2021/04/03 00:38:21;;;;;;;2.92;2.30;;;;;;;2.09;70.35;96083.34;1776530;79;21202;-58
2021/04/03 00:40:50;;;;;;;2.62;2.40;;;;;;;2.13;70.38;96078.48;1765761;80;21133;-56
2021/04/03 00:43:24;;;;;;;4.17;2.70;;;;;;;2.18;70.31;96073.52;1742755;81;21099;-56
2021/04/03 00:45:51;;;;;;;4.17;3.10;;;;;;;2.21;70.15;96082.80;1750409;79;21127;-56
2021/04/03 00:48:19;;;;;;;4.08;3.35;;;;;;;2.19;69.88;96077.75;1776187;80;21489;-57
2021/04/03 00:50:50;;;;;;;4.25;2.87;;;;;;;2.09;69.87;96069.26;1772804;79;21375;-57
2021/04/03 00:53:21;;;;;;;5.85;2.55;;;;;;;2.01;69.96;96065.33;1771938;79;21155;-56
2021/04/03 00:55:51;;;;;;;3.35;2.25;;;;;;;1.90;70.21;96067.53;1766522;79;21136;-58
2021/04/03 00:58:21;;;;;;;2.87;2.10;;;;;;;1.83;70.57;96064.42;1769912;79;21495;-57
2021/04/03 01:00:49;;;;;;;3.77;2.37;;;;;;;1.80;70.72;96055.59;1744250;79;21091;-57
2021/04/03 01:03:19;;;;;;;3.52;2.80;;;;;;;1.80;70.76;96067.11;1751791;80;21065;-55
2021/04/03 01:05:47;;;;;;;3.02;2.45;;;;;;;1.78;70.73;96056.12;1763265;79;21201;-57
2021/04/03 01:08:15;;;;;;;2.85;2.33;;;;;;;1.80;70.72;96050.94;1755920;81;21151;-57
2021/04/03 01:10:52;;;;;;;2.85;2.33;;;;;;;1.75;70.80;96044.74;1760567;81;21154;-59
2021/04/03 01:13:58;;;;;;;2.80;2.35;;;;;;;1.74;70.83;96045.63;1758921;80;21179;-57
2021/04/03 01:16:59;;;;;;;3.30;2.27;;;;;;;1.72;71.00;96038.48;1807420;77;22086;-58
2021/04/03 01:20:06;;;;;;;3.12;2.27;;;;;;;1.64;71.02;96034.16;1778978;79;21144;-58
2021/04/03 01:23:11;;;;;;;4.65;2.15;;;;;;;1.64;71.03;96033.72;1777066;79;21106;-56
2021/04/03 01:26:02;;;;;;;2.47;2.10;;;;;;;1.71;70.89;96028.31;1770861;79;21061;-57
2021/04/03 01:29:00;;;;;;;3.77;2.02;;;;;;;1.80;70.78;96032.58;1775154;80;21188;-57
2021/04/03 01:31:29;;;;;;;4.47;2.15;;;;;;;1.84;70.54;96026.87;1772501;78;24646;-55
2021/04/03 01:34:00;;;;;;;3.65;2.40;;;;;;;1.82;70.53;96029.48;1763849;78;21057;-55
2021/04/03 01:36:30;;;;;;;3.10;2.30;;;;;;;1.86;70.57;96034.05;1771596;78;21461;-56
2021/04/03 01:39:07;;;;;;;3.05;2.30;;;;;;;1.92;70.40;96031.65;1719124;81;21892;-55
2021/04/03 01:41:35;;;;;;;4.45;2.50;;;;;;;1.97;70.15;96025.44;1700311;82;21076;-56
2021/04/03 01:44:05;;;;;;;3.42;2.45;;;;;;;2.01;69.97;96018.45;1731467;80;21171;-57
2021/04/03 01:46:35;;;;;;;2.45;2.15;;;;;;;1.94;69.94;96012.78;1722161;81;21565;-57
2021/04/03 01:49:13;;;;;;;2.52;2.27;;;;;;;1.89;70.06;96016.00;1689799;81;21214;-57
2021/04/03 01:51:45;;;;;;;3.58;2.52;;;;;;;1.89;69.97;96020.27;1722799;82;21156;-56
2021/04/03 01:54:15;;;;;;;3.27;2.50;;;;;;;1.82;69.98;96024.83;1733460;80;21192;-56
2021/04/03 01:56:46;;;;;;;2.85;2.20;;;;;;;1.78;70.08;96024.14;1699661;83;21572;-55
2021/04/03 01:59:17;;;;;;;3.85;2.60;;;;;;;1.79;70.08;96016.86;1692257;83;21094;-58
2021/04/03 02:01:48;;;;;;;2.50;2.17;;;;;;;1.81;70.20;96020.63;1654224;83;21400;-56
2021/04/03 02:04:17;;;;;;;2.30;2.10;;;;;;;1.82;69.95;96018.44;1729152;80;21560;-56
2021/04/03 02:06:47;;;;;;;3.08;2.70;;;;;;;1.72;69.95;96026.15;1716404;82;21073;-56
2021/04/03 02:09:16;;;;;;;2.65;1.95;;;;;;;1.68;70.24;96028.45;1727105;80;21137;-56
2021/04/03 02:11:49;;;;;;;2.17;1.92;;;;;;;1.69;70.27;96022.44;1733947;80;21481;-57
2021/04/03 02:14:42;;;;;;;3.05;2.75;;;;;;;1.75;70.13;96029.85;1853459;75;38002;-57
2021/04/03 02:17:11;;;;;;;5.58;2.92;;;;;;;1.77;69.96;96030.15;1807756;77;21030;-57
2021/04/03 02:19:39;;;;;;;3.55;2.42;;;;;;;1.78;69.93;96029.27;1806413;77;21367;-56
2021/04/03 02:22:12;;;;;;;5.30;3.02;;;;;;;1.78;69.87;96034.38;1805727;77;21175;-56
2021/04/03 02:24:44;;;;;;;3.80;2.83;;;;;;;1.70;69.91;96035.63;1810592;78;21068;-57
2021/04/03 02:27:13;;;;;;;3.37;2.92;;;;;;;1.57;69.97;96034.05;1802497;78;21052;-56
2021/04/03 02:29:43;;;;;;;3.95;2.52;;;;;;;1.41;70.38;96037.25;1781517;78;21040;-56
2021/04/03 02:32:13;;;;;;;2.83;2.30;;;;;;;1.35;70.59;96031.57;1711125;80;21471;-57
2021/04/03 02:34:42;;;;;;;;;;;;;;;1.34;70.80;96037.14;1816871;77;20996;-56
2021/04/03 02:37:12;;;;;;;2.90;2.20;;;;;;;1.29;70.91;96038.61;1803845;78;20496;-56
2021/04/03 02:39:40;;;;;;;4.20;2.60;;;;;;;1.24;71.04;96037.98;1800602;78;21131;-56
2021/04/03 02:42:16;;;;;;;2.80;2.50;;;;;;;1.16;71.15;96032.82;1788148;77;21576;-57
2021/04/03 02:44:53;;;;;;;3.33;2.52;;;;;;;1.10;71.36;96029.63;1714157;82;21380;-57
2021/04/03 02:47:32;;;;;;;2.72;2.12;;;;;;;1.12;71.47;96013.38;1731230;80;21102;-57
2021/04/03 02:50:06;;;;;;;;;;;;;;;1.09;71.44;96017.73;1785952;78;21150;-58
2021/04/03 02:52:36;;;;;;;3.25;2.10;;;;;;;1.05;71.61;96017.92;1812175;78;20333;-58
2021/04/03 02:55:06;;;;;;;4.75;1.82;;;;;;;1.04;72.09;96018.84;1808061;78;21119;-56
2021/04/03 02:57:34;;;;;;;2.80;2.22;;;;;;;1.10;71.79;96013.02;1813533;78;21162;-58
2021/04/03 03:00:05;;;;;;;3.02;2.00;;;;;;;1.19;71.66;96009.70;1813954;78;21040;-57
2021/04/03 03:02:33;;;;;;;2.55;2.12;;;;;;;1.28;71.38;96012.69;1770362;78;21641;-56
2021/04/03 03:05:08;;;;;;;2.65;2.20;;;;;;;1.36;71.31;96000.83;1802137;78;21120;-57
2021/04/03 03:07:40;;;;;;;7.17;2.22;;;;;;;1.48;70.99;96000.77;1772427;79;21104;-56
2021/04/03 03:10:10;;;;;;;2.98;2.40;;;;;;;1.63;70.58;95993.69;1743157;82;21206;-56
2021/04/03 03:12:39;;;;;;;2.40;2.20;;;;;;;1.73;70.15;95990.73;1783965;78;21409;-57
2021/04/03 03:15:09;;;;;;;2.75;2.42;;;;;;;1.77;70.02;95985.38;1805981;79;21108;-56
2021/04/03 03:17:38;;;;;;;2.75;2.55;;;;;;;1.84;69.80;95987.22;1799084;79;21096;-57
2021/04/03 03:20:09;;;;;;;3.67;2.62;;;;;;;1.92;69.40;95990.25;1799800;79;21179;-56
2021/04/03 03:22:36;;;;;;;4.78;3.00;;;;;;;1.99;69.24;95985.68;1785482;79;22554;-56
2021/04/03 03:25:06;;;;;;;5.53;3.70;;;;;;;2.05;69.03;95988.42;1768864;79;21155;-57
2021/04/03 03:27:41;;;;;;;7.53;4.62;;;;;;;2.11;68.78;95985.13;1804922;79;21096;-57
2021/04/03 03:30:11;;;;;;;7.60;4.53;;;;;;;2.16;68.41;95985.73;1797841;79;21093;-57
2021/04/03 03:32:38;;;;;;;6.87;4.53;;;;;;;2.14;68.03;95980.33;1786550;79;21468;-56
2021/04/03 03:35:09;;;;;;;7.72;4.10;;;;;;;2.02;67.97;95989.38;1805462;79;21156;-57
2021/04/03 03:37:38;;;;;;;4.05;3.02;;;;;;;1.86;68.33;95989.70;1804103;79;21179;-57
2021/04/03 03:40:09;;;;;;;3.45;2.40;;;;;;;1.72;68.63;95991.16;1758979;79;21564;-56
2021/04/03 03:42:37;;;;;;;2.80;2.25;;;;;;;1.59;68.90;95992.61;1781516;79;21100;-56
2021/04/03 03:45:09;;;;;;;3.42;2.22;;;;;;;1.50;69.12;95990.02;1806379;79;21143;-56
2021/04/03 03:47:37;;;;;;;3.33;2.60;;;;;;;1.37;69.33;95994.84;1800298;79;22336;-56
2021/04/03 03:50:07;;;;;;;3.00;2.40;;;;;;;1.28;69.62;96002.47;1804564;79;21120;-57
2021/04/03 03:52:37;;;;;;;3.60;2.80;;;;;;;1.29;69.80;95990.50;1797792;79;21057;-56
2021/04/03 03:55:08;;;;;;;3.58;3.27;;;;;;;1.31;69.66;95991.27;1801596;79;21600;-56
2021/04/03 03:57:36;;;;;;;4.65;2.77;;;;;;;1.27;69.68;95993.13;1804414;79;21096;-57
2021/04/03 04:00:06;;;;;;;5.30;3.60;;;;;;;1.26;69.99;95998.30;1800721;79;23450;-56
2021/04/03 04:02:36;;;;;;;6.17;3.72;;;;;;;1.36;69.96;96004.67;1802648;79;21168;-56
2021/04/03 04:05:06;;;;;;;4.87;4.00;;;;;;;1.49;69.65;96004.97;1802320;79;21116;-57
2021/04/03 04:07:34;;;;;;;;;;;;;;;1.62;69.43;96016.77;1794482;79;21578;-56
2021/04/03 04:10:07;;;;;;;6.53;4.75;;;;;;;1.75;69.07;96024.73;1799605;79;20206;-57
2021/04/03 04:12:37;;;;;;;5.45;4.20;;;;;;;1.86;68.45;96030.20;1807261;79;22199;-57
2021/04/03 04:15:08;;;;;;;7.35;4.50;;;;;;;1.84;68.10;96026.87;1805380;78;21168;-57
2021/04/03 04:17:35;;;;;;;5.03;3.90;;;;;;;1.82;68.25;96025.66;1793816;79;21580;-59
2021/04/03 04:20:06;;;;;;;6.35;4.17;;;;;;;1.86;68.31;96028.08;1796370;79;21603;-56
2021/04/03 04:22:35;;;;;;;5.60;4.00;;;;;;;1.92;68.13;96035.48;1803584;79;21104;-55
2021/04/03 04:25:05;;;;;;;5.07;3.73;;;;;;;1.93;68.02;96026.92;1807172;79;22676;-56
2021/04/03 04:27:32;;;;;;;3.52;3.08;;;;;;;1.99;67.93;96024.91;1799981;79;21056;-56
2021/04/03 04:30:08;;;;;;;4.25;3.25;;;;;;;2.08;67.53;96024.94;1798701;79;21250;-55
2021/04/03 04:32:30;;;;;;;4.45;2.50;;;;;;;2.12;67.28;96012.82;1804230;79;21049;-56
2021/04/03 04:34:59;;;;;;;3.47;2.70;;;;;;;2.13;67.11;96009.38;1801747;79;21061;-58
2021/04/03 04:37:26;;;;;;;3.60;2.60;;;;;;;2.36;66.90;96014.23;1801924;79;21302;-56
2021/04/03 04:39:56;;;;;;;3.58;2.58;;;;;;;2.89;65.86;96009.17;1800102;79;21557;-56
2021/04/03 04:42:24;;;;;;;4.05;3.10;;;;;;;3.49;64.54;95997.19;1797564;79;21571;-56
2021/04/03 04:44:55;;;;;;;3.90;2.80;;;;;;;4.11;61.67;95992.20;1795388;79;21147;-56
2021/04/03 04:47:22;;;;;;;;;;;;;;;4.51;60.56;96000.73;1801936;79;21060;-56
2021/04/03 04:49:52;;;;;;;3.10;2.42;;;;;;;4.89;59.36;96009.31;1775522;79;22436;-56
2021/04/03 04:52:20;;;;;;;3.77;2.92;;;;;;;4.96;58.66;96004.98;1806616;79;21072;-55
2021/04/03 04:54:48;;;;;;;3.15;2.77;;;;;;;5.19;58.62;96004.12;1794115;79;26587;-56
2021/04/03 04:57:17;;;;;;;6.78;3.17;;;;;;;5.64;57.99;96007.48;1801044;79;26956;-56
2021/04/03 04:59:47;;;;;;;3.37;2.98;;;;;;;5.81;57.05;96005.63;1802589;79;21140;-57
2021/04/03 05:02:16;;;;;;;6.87;4.35;;;;;;;5.72;57.15;96018.58;1800846;79;21206;-56
2021/04/03 05:04:44;;;;;;;5.55;3.95;;;;;;;5.67;57.29;96015.45;1799232;79;21175;-57
2021/04/03 05:07:12;;;;;;;8.38;4.62;;;;;;;5.61;57.19;96012.81;1803755;79;21128;-57
2021/04/03 05:09:39;;;;;;;7.25;4.03;;;;;;;5.49;56.78;96009.66;1803339;79;21188;-56
2021/04/03 05:12:28;;;;;;;5.70;4.30;;;;;;;5.22;56.94;96002.66;1796348;78;21598;-56
2021/04/03 05:14:56;;;;;;;6.50;4.35;;;;;;;4.98;57.75;96001.05;1691129;83;22362;-56
2021/04/03 05:17:23;;;;;;;5.85;4.53;;;;;;;4.90;58.22;96001.95;1671493;84;21147;-56
2021/04/03 05:19:53;;;;;;;6.00;4.40;;;;;;;4.89;58.35;96006.73;1660219;84;21180;-56
2021/04/03 05:22:21;;;;;;;5.33;4.30;;;;;;;4.90;58.46;96004.08;1662895;86;21158;-57
2021/04/03 05:24:49;;;;;;;7.58;4.70;;;;;;;4.90;58.33;96005.80;1650316;87;21087;-58
2021/04/03 05:27:16;;;;;;;5.30;4.35;;;;;;;4.84;58.32;96006.17;1690109;84;21406;-57
2021/04/03 05:29:44;;;;;;;9.33;5.30;;;;;;;4.94;58.62;96013.26;1690912;84;21198;-58
2021/04/03 05:32:12;;;;;;;7.30;5.17;;;;;;;5.72;57.46;96022.44;1658878;84;21151;-57
2021/04/03 05:34:40;;;;;;;6.10;5.15;;;;;;;6.53;55.09;96023.52;1648103;86;21180;-57
2021/04/03 05:37:09;;;;;;;7.03;4.65;;;;;;;6.88;54.47;96025.14;1646947;86;21185;-57
2021/04/03 05:39:37;;;;;;;4.60;3.83;;;;;;;7.19;53.74;96024.44;1693339;84;21234;-56
2021/04/03 05:42:08;;;;;;;5.03;3.92;;;;;;;7.38;52.91;96021.44;1692496;84;27359;-58
2021/04/03 05:44:35;;;;;;;5.47;4.42;;;;;;;7.43;51.63;96028.41;1695033;84;21584;-57
2021/04/03 05:47:05;;;;;;;4.97;3.95;;;;;;;7.47;51.66;96027.30;1645488;86;21386;-57
2021/04/03 05:49:32;;;;;;;5.22;3.77;;;;;;;7.85;50.78;96020.47;1697054;84;21135;-57
2021/04/03 05:52:03;;;;;;;6.97;4.00;;;;;;;8.51;49.30;96009.40;1650182;84;21414;-58
2021/04/03 05:54:39;;;;;;;3.55;3.25;;;;;;;9.15;48.28;96009.54;1695484;84;21614;-57
2021/04/03 05:57:09;;;;;;;6.03;3.98;;;;;;;9.89;46.18;96007.86;1687801;84;21147;-56
2021/04/03 05:59:36;;;;;;;5.33;3.50;;;;;;;10.49;45.20;96016.16;1672728;84;21122;-55
2021/04/03 06:02:05;;;;;;;3.83;3.30;;;;;;;11.28;43.97;96031.43;1671401;84;21172;-55
2021/04/03 06:04:33;;;;;;;4.72;3.80;;;;;;;12.01;41.61;96035.85;1695777;84;21210;-56
2021/04/03 06:07:05;;;;;;;12.75;4.50;;;;;;;12.38;41.02;96039.99;1695161;84;21573;-56
2021/04/03 06:09:32;;;;;;;5.22;4.30;;;;;;;13.02;40.82;96032.20;1691757;84;21157;-56
2021/04/03 06:12:01;;;;;;;4.90;4.10;;;;;;;13.98;38.19;96024.88;1690652;84;21813;-57
2021/04/03 06:14:36;;;;;;;4.47;4.08;;;;;;;14.64;37.40;96029.59;1690174;83;21063;-56
2021/04/03 06:17:04;;;;;;;4.05;3.65;;;;;;;15.22;35.30;96026.53;1724243;83;21675;-56
2021/04/03 06:19:35;;;;;;;6.12;4.03;;;;;;;15.20;34.26;96023.26;1692734;83;21147;-56
2021/04/03 06:22:04;;;;;;;6.28;4.20;;;;;;;14.69;35.18;96023.45;1683582;84;21189;-56
2021/04/03 06:24:36;;;;;;;4.67;3.90;;;;;;;14.82;35.08;96017.84;1721595;82;21142;-56
2021/04/03 06:27:12;;;;;;;5.33;4.03;;;;;;;15.18;34.47;96008.22;1687630;84;21167;-56
2021/04/03 06:29:48;;;;;;;4.53;3.92;;;;;;;15.57;34.13;96009.63;1720080;82;21169;-56
2021/04/03 06:32:30;;;;;;;8.15;4.40;;;;;;;15.85;32.57;96007.70;1717740;83;21103;-55
2021/04/03 06:34:57;;;;;;;4.78;3.50;;;;;;;15.18;32.92;96005.61;1721267;83;21592;-55
2021/04/03 06:37:35;;;;;;;5.47;3.90;;;;;;;14.69;33.73;95998.64;1722659;82;21502;-55
2021/04/03 06:40:09;;;;;;;4.75;3.52;;;;;;;14.67;34.55;95997.48;1722298;82;21155;-56
2021/04/03 06:42:55;;;;;;;5.62;4.42;;;;;;;14.76;34.67;95999.67;1687972;84;21365;-56
2021/04/03 06:45:32;;;;;;;5.15;3.95;;;;;;;15.30;33.27;95998.84;1721603;82;21188;-57
2021/04/03 06:48:08;;;;;;;6.20;4.50;;;;;;;15.52;33.30;95995.70;1682437;84;21198;-56
2021/04/03 06:50:46;;;;;;;6.55;4.60;;;;;;;15.98;32.91;95990.27;1719578;83;21067;-57
2021/04/03 06:53:18;;;;;;;15.43;4.97;;;;;;;16.21;32.06;95987.91;1681039;84;21181;-57
2021/04/03 06:55:50;;;;;;;10.53;4.58;;;;;;;16.39;32.29;95994.36;1722151;83;21220;-57
2021/04/03 06:58:18;;;;;;;8.43;4.60;;;;;;;16.86;31.41;95989.11;1719476;82;21102;-56
2021/04/03 07:00:46;;;;;;;10.45;4.50;;;;;;;17.40;30.28;95989.43;1689574;84;21088;-57
2021/04/03 07:03:25;;;;;;;7.92;4.67;;;;;;;17.91;29.34;95994.92;1692933;82;21578;-57
2021/04/03 07:05:53;;;;;;;12.68;4.90;;;;;;;18.17;28.16;95990.73;1718882;83;21542;-57
2021/04/03 07:08:23;;;;;;;8.80;4.90;;;;;;;18.08;28.13;95987.33;1723857;82;21205;-56
2021/04/03 07:10:51;;;;;;;7.22;4.60;;;;;;;17.94;28.11;95986.21;1722302;82;21190;-56
2021/04/03 07:13:20;;;;;;;7.30;4.92;;;;;;;17.74;28.66;95991.50;1663636;84;21562;-58
2021/04/03 07:15:48;;;;;;;10.03;5.42;;;;;;;17.47;28.70;95990.39;1660350;82;21111;-56
2021/04/03 07:18:18;;;;;;;9.33;6.20;;;;;;;17.20;28.76;95992.86;1701103;82;21065;-57
2021/04/03 07:20:48;;;;;;;7.00;5.37;;;;;;;16.93;29.17;96005.30;1730283;82;21392;-57
2021/04/03 07:23:16;;;;;;;11.45;6.22;;;;;;;16.64;29.51;96016.69;1725375;82;21107;-55
2021/04/03 07:25:45;;;;;;;10.98;6.12;;;;;;;16.32;30.29;96006.45;1702359;84;21144;-56
2021/04/03 07:28:15;;;;;;;12.98;5.95;;;;;;;16.00;30.37;96006.63;1670478;85;21184;-56
2021/04/03 07:30:46;;;;;;;12.18;6.70;;;;;;;15.64;30.75;96006.26;1710401;82;21113;-57
2021/04/03 07:33:19;;;;;;;9.30;6.05;;;;;;;15.33;31.25;96009.80;1728243;82;22336;-56
2021/04/03 07:35:55;;;;;;;8.88;6.03;;;;;;;15.12;31.65;96019.77;1731633;82;21128;-58
2021/04/03 07:38:29;;;;;;;10.75;5.60;;;;;;;14.86;32.04;96017.89;1707976;82;21155;-57
2021/04/03 07:41:01;;;;;;;11.95;6.45;;;;;;;14.68;32.37;96018.69;1734233;81;21046;-57
2021/04/03 07:43:46;;;;;;;19.20;6.85;;;;;;;14.44;32.61;96021.00;1729892;81;21058;-57
2021/04/03 07:46:27;;;;;;;11.63;6.10;;;;;;;14.23;33.18;96016.88;1730231;82;21206;-56
2021/04/03 07:49:00;;;;;;;13.93;6.37;;;;;;;14.04;33.28;96026.89;1693019;84;21099;-56
2021/04/03 07:51:37;;;;;;;10.53;6.15;;;;;;;13.80;33.84;96030.83;1716399;82;21078;-57
2021/04/03 07:54:06;;;;;;;10.75;6.78;;;;;;;13.68;33.73;96030.64;1674108;85;21187;-56
2021/04/03 07:56:51;;;;;;;12.28;7.30;;;;;;;13.39;33.71;96027.63;1726726;82;21122;-56
2021/04/03 07:59:47;;;;;;;13.93;6.75;;;;;;;13.11;34.34;96029.73;1731213;82;22110;-56
2021/04/03 08:02:19;;;;;;;13.13;6.62;;;;;;;12.94;35.02;96029.95;1729510;82;21114;-57
2021/04/03 08:04:50;;;;;;;13.38;7.40;;;;;;;12.89;35.23;96023.38;1704456;83;21172;-57
2021/04/03 08:07:20;;;;;;;14.93;7.05;;;;;;;12.87;35.77;96021.86;1718867;82;21082;-55
2021/04/03 08:09:48;;;;;;;14.30;6.72;;;;;;;12.84;35.64;96022.13;1673626;85;21090;-56
2021/04/03 08:12:23;;;;;;;11.30;6.70;;;;;;;12.72;35.84;96022.74;1723235;82;21579;-56
2021/04/03 08:14:52;;;;;;;16.23;6.75;;;;;;;12.61;36.10;96031.48;1664642;85;21109;-56
2021/04/03 08:17:21;;;;;;;15.15;6.92;;;;;;;12.55;36.35;96028.14;1643343;85;21187;-56
2021/04/03 08:19:52;;;;;;;12.78;5.75;;;;;;;12.51;36.38;96027.56;1721258;82;21176;-57
2021/04/03 08:22:21;;;;;;;17.77;6.15;;;;;;;12.45;35.98;96020.31;1720887;82;21569;-56
2021/04/03 08:24:58;;;;;;;11.57;6.47;;;;;;;12.41;36.24;96020.22;1721430;82;21393;-56
2021/04/03 08:27:35;;;;;;;16.02;6.83;;;;;;;12.39;36.01;96021.33;1699630;83;21136;-55
2021/04/03 08:30:20;;;;;;;16.95;6.30;;;;;;;12.39;36.01;96021.33;1723565;82;21124;-57
2021/04/03 08:32:37;;;;;;;12.35;5.42;;;;;;;12.41;35.82;96025.42;1719307;82;21150;-56
2021/04/03 08:35:08;;;;;;;9.08;5.20;;;;;;;12.41;35.38;96024.61;1722693;82;21168;-57
2021/04/03 08:37:37;;;;;;;9.85;4.92;;;;;;;12.36;34.20;96025.48;1688442;84;21212;-56
2021/04/03 08:40:11;;;;;;;10.93;4.83;;;;;;;12.30;33.38;96025.52;1676461;84;21167;-57
2021/04/03 08:42:48;;;;;;;11.73;4.85;;;;;;;12.30;33.49;96025.06;1887198;74;28851;-57
2021/04/03 08:45:19;;;;;;;12.78;5.08;;;;;;;12.20;33.71;96026.80;1850624;75;21455;-56
2021/04/03 08:47:52;;;;;;;11.93;5.47;;;;;;;12.17;33.74;96032.28;1858396;75;21959;-57
2021/04/03 08:50:22;;;;;;;10.80;5.17;;;;;;;12.14;34.50;96032.06;1826567;77;21102;-57
2021/04/03 08:53:02;;;;;;;13.18;6.15;;;;;;;12.09;34.12;96032.94;1808735;76;21099;-56
2021/04/03 08:55:31;;;;;;;11.57;6.08;;;;;;;12.03;33.77;96030.84;1837688;75;21093;-56
2021/04/03 08:58:00;;;;;;;15.88;6.10;;;;;;;11.94;35.04;96032.47;1839209;75;21148;-56
2021/04/03 09:00:29;;;;;;;10.55;5.50;;;;;;;11.81;35.32;96033.59;1843020;75;22244;-57
2021/04/03 09:02:59;;;;;;;14.65;5.50;;;;;;;11.68;36.01;96040.31;1848619;76;21059;-57
2021/04/03 09:05:29;;;;;;;16.97;5.22;;;;;;;11.61;34.92;96037.37;1856128;75;21060;-56
2021/04/03 09:07:59;;;;;;;11.65;5.45;;;;;;;11.45;35.08;96031.36;1838131;75;21066;-55
2021/04/03 09:10:34;;;;;;;15.40;6.33;;;;;;;11.41;34.63;96036.44;1816874;75;21124;-56
2021/04/03 09:13:09;;;;;;;12.47;6.05;;;;;;;11.34;36.71;96034.83;1853482;75;21352;-56
2021/04/03 09:15:43;;;;;;;19.07;6.00;;;;;;;11.26;37.37;96032.52;1838826;76;21120;-56
2021/04/03 09:18:11;;;;;;;15.23;5.80;;;;;;;11.19;37.81;96036.91;1866794;76;21092;-56
2021/04/03 09:20:49;;;;;;;12.85;6.25;;;;;;;11.16;37.38;96044.95;1839904;76;21116;-57
2021/04/03 09:23:22;;;;;;;10.40;5.30;;;;;;;11.09;37.63;96040.41;1867986;76;21031;-56
2021/04/03 09:26:04;;;;;;;7.65;5.10;;;;;;;11.03;37.09;96048.20;1854794;75;21191;-58
2021/04/03 09:28:42;;;;;;;7.25;4.70;;;;;;;10.94;37.03;96046.36;1838088;76;21085;-58
2021/04/03 09:31:10;;;;;;;8.90;4.87;;;;;;;10.93;36.01;96044.70;1799797;79;21173;-58
2021/04/03 09:33:46;;;;;;;6.83;4.80;;;;;;;10.96;35.10;96052.25;1790716;78;21108;-57
2021/04/03 09:36:17;;;;;;;11.22;5.08;;;;;;;11.01;34.68;96049.62;1794712;78;21156;-57
2021/04/03 09:38:45;;;;;;;9.80;4.72;;;;;;;11.07;34.93;96052.66;1791780;78;21478;-56
2021/04/03 09:41:25;;;;;;;7.57;4.20;;;;;;;11.12;34.61;96054.41;1791884;78;21145;-57
2021/04/03 09:43:53;;;;;;;8.43;4.45;;;;;;;11.19;34.29;96054.28;1798024;78;21172;-57
2021/04/03 09:46:23;;;;;;;6.83;4.22;;;;;;;11.21;32.87;96059.67;1798780;78;21190;-58
2021/04/03 09:48:51;;;;;;;6.60;4.22;;;;;;;11.24;32.69;96054.72;1792115;78;21496;-56
2021/04/03 09:51:20;;;;;;;7.30;4.65;;;;;;;11.32;32.52;96055.41;1797171;78;22118;-56
2021/04/03 09:53:51;;;;;;;8.98;4.70;;;;;;;11.38;32.60;96061.37;1795295;78;21192;-56
2021/04/03 09:56:20;;;;;;;7.85;4.55;;;;;;;11.47;32.65;96059.81;1790975;78;21201;-58
2021/04/03 09:58:54;;;;;;;8.50;4.08;;;;;;;11.47;32.32;96068.41;1799368;78;21199;-57
2021/04/03 10:01:21;;;;;;;5.95;4.37;;;;;;;11.47;31.27;96067.60;1792151;78;21124;-57
2021/04/03 10:03:49;;;;;;;22.98;13.85;;;;;;;11.48;31.78;96073.97;1790723;78;21394;-57
2021/04/03 10:06:18;;;;;;;33.35;18.82;;;;;;;11.44;31.79;96067.36;1791025;78;28677;-56
2021/04/03 10:08:46;;;;;;;25.20;10.48;;;;;;;11.35;32.14;96071.55;1791780;78;21083;-56
2021/04/03 10:11:17;;;;;;;11.35;5.25;;;;;;;11.30;32.13;96072.41;1790756;78;21136;-57
2021/04/03 10:13:47;;;;;;;9.43;4.50;;;;;;;11.33;32.43;96070.86;1797192;78;21125;-57
2021/04/03 10:16:16;;;;;;;12.75;5.45;;;;;;;11.37;32.65;96069.64;1789943;78;21206;-57
2021/04/03 10:18:45;;;;;;;9.70;4.80;;;;;;;11.47;32.22;96064.52;1790526;78;21116;-56
2021/04/03 10:21:15;;;;;;;10.45;5.72;;;;;;;11.69;31.78;96069.23;1800084;78;21071;-55
2021/04/03 10:23:43;;;;;;;15.32;6.42;;;;;;;11.89;31.63;96073.59;1791235;78;21120;-56
2021/04/03 10:26:11;;;;;;;24.43;6.50;;;;;;;12.18;31.39;96077.31;1800637;78;21165;-56
2021/04/03 10:28:39;;;;;;;16.82;5.90;;;;;;;12.41;31.08;96074.04;1792188;78;22092;-59
2021/04/03 10:31:09;;;;;;;14.53;5.42;;;;;;;12.64;31.12;96071.55;1778081;78;21182;-56
2021/04/03 10:33:38;;;;;;;14.67;6.30;;;;;;;12.80;30.50;96068.45;1800149;78;21153;-56
2021/04/03 10:36:08;;;;;;;14.03;5.72;;;;;;;12.91;30.66;96065.37;1801603;78;21177;-57
2021/04/03 10:38:37;;;;;;;17.77;6.20;;;;;;;12.96;30.96;96064.02;1793942;78;21469;-57
2021/04/03 10:41:05;;;;;;;24.32;6.70;;;;;;;12.98;30.40;96058.19;1794579;78;22001;-57
2021/04/03 10:43:33;;;;;;;12.37;6.03;;;;;;;12.93;31.10;96072.55;1785762;79;21128;-57
2021/04/03 10:46:01;;;;;;;17.90;6.87;;;;;;;12.86;31.08;96074.88;1800799;78;21144;-57
2021/04/03 10:48:29;;;;;;;14.10;7.25;;;;;;;12.83;31.31;96079.89;1808397;78;21187;-56
2021/04/03 10:50:58;;;;;;;11.55;6.25;;;;;;;12.67;30.99;96084.31;1820128;76;21643;-57
2021/04/03 10:53:26;;;;;;;17.55;6.83;;;;;;;12.41;31.97;96090.47;1808825;78;21847;-57
2021/04/03 10:55:54;;;;;;;14.75;7.40;;;;;;;12.20;32.40;96087.91;1809588;79;21066;-57
2021/04/03 10:58:22;;;;;;;17.15;6.65;;;;;;;12.00;33.16;96087.49;1800198;78;21590;-57
2021/04/03 11:00:49;;;;;;;13.58;7.00;;;;;;;11.89;33.68;96089.20;1798173;78;21172;-57
2021/04/03 11:03:17;;;;;;;13.83;6.90;;;;;;;11.79;33.57;96082.64;1805116;78;21041;-57
2021/04/03 11:05:45;;;;;;;19.50;7.37;;;;;;;11.74;33.89;96083.51;1807210;78;21324;-56
2021/04/03 11:08:13;;;;;;;12.82;6.28;;;;;;;11.74;33.72;96078.77;1802620;78;21860;-55
2021/04/03 11:10:41;;;;;;;14.30;6.70;;;;;;;11.68;33.88;96083.19;1803376;78;21156;-55
2021/04/03 11:13:09;;;;;;;13.90;7.42;;;;;;;11.69;33.65;96075.73;1814155;78;21139;-55
2021/04/03 11:15:37;;;;;;;13.03;7.17;;;;;;;11.73;33.61;96073.23;1795501;78;21040;-55
2021/04/03 11:18:05;;;;;;;14.93;7.05;;;;;;;11.73;34.03;96075.34;1819128;77;22346;-56
2021/04/03 11:20:33;;;;;;;13.45;7.67;;;;;;;11.66;34.75;96075.98;1781072;79;21148;-56
2021/04/03 11:23:02;;;;;;;;;;;;;;;11.65;35.42;96070.45;1804811;78;21126;-56
2021/04/03 11:25:30;;;;;;;19.87;8.83;;;;;;;11.69;35.51;96072.64;1800366;78;20261;-57
2021/04/03 11:27:58;;;;;;;17.65;7.80;;;;;;;11.69;35.45;96071.83;1813850;78;21168;-56
2021/04/03 11:30:26;;;;;;;16.30;8.18;;;;;;;11.68;34.93;96074.09;1787127;78;22074;-56
2021/04/03 11:32:54;;;;;;;14.65;8.38;;;;;;;11.64;34.86;96071.39;1814838;78;26415;-57
2021/04/03 11:35:23;;;;;;;13.25;8.05;;;;;;;11.63;34.98;96069.28;1806439;78;21168;-56
2021/04/03 11:37:51;;;;;;;13.25;7.33;;;;;;;11.62;35.11;96070.22;1803967;78;21124;-56
2021/04/03 11:40:20;;;;;;;;;;;;;;;11.58;34.95;96069.66;1804115;79;21190;-56
2021/04/03 11:42:52;;;;;;;16.50;7.93;;;;;;;11.54;35.42;96066.13;1797865;77;21386;-56
2021/04/03 11:45:21;;;;;;;14.23;7.95;;;;;;;11.55;35.54;96065.19;1796477;79;21765;-56
2021/04/03 11:47:50;;;;;;;15.98;8.88;;;;;;;11.58;35.61;96066.24;1784089;79;21162;-56
2021/04/03 11:50:19;;;;;;;15.60;8.20;;;;;;;11.50;35.72;96072.06;1791382;78;21486;-56
2021/04/03 11:52:48;;;;;;;11.38;7.25;;;;;;;11.46;35.62;96076.33;1794013;78;21127;-56
2021/04/03 11:55:17;;;;;;;17.65;7.47;;;;;;;11.45;35.42;96079.41;1797369;78;21190;-56